Lugano, Switzerland

12:35 AM CEST on August 25, 2016 (GMT +0200)
Via Serafino Balestra | | Change Station

Elev 918 ft 46.01 °N, 8.95 °E | Updated 2 minutes ago

Clear
Clear
66.4 °F
Feels Like 66.4 °F
N
0.6
Wind Variable Wind from NNW
Gusts 1.2 mph

Today
High -- | Low -- °F
--% Chance of Precip.
Yesterday
High -- | Low -- °F
Precip. -- in
Pressure 30.18 in
Visibility -9999.0 miles
Clouds
Dew Point 60 °F
Humidity 79%
Rainfall 0.00 in
Snow Depth Not available.
6:36 AM 8:14 PM
Waning Gibbous, 52% visible
METAR LSZA 242220Z AUTO 36001KT CAVOK 20/17 Q1022
Pressure 30.18 in
Visibility -9999.0 miles
Clouds
Dew Point 60 °F
Humidity 79%
Rainfall 0.00 in
Snow Depth Not available.
6:36 AM 8:14 PM
Waning Gibbous, 52% visible
METAR LSZA 242220Z AUTO 36001KT CAVOK 20/17 Q1022

10-Day Weather Forecast

×

Almanac

Astronomy

Aug. 25, 2016 Rise Set
Actual Time
Civil Twilight
Nautical Twilight
Astronomical Twilight
Moon
Length of Visible Light
Length of Day
Tomorrow will be .
, % of the Moon is Illuminated

Today's Extremes

Country Highs Country Lows

Community

WunderPhotos

Upload Photos

1,934,728 photos uploaded!

WunderBlog® & News

Nearby

Air Quality

  Air Quality AQ Index Pollutant
Not available.

Snow Depth

Station Depth Elevation

Earthquake Activity

City Distance Mag. Time & Date
Minimum magnitude displayed is 2.5.

Coastal Water Temperatures

Place Temperature

Stations

Nearby Weather Stations

Station Location Temp. Windchill Dew Point Humidity Wind Precip. Elev Updated Type